Time;durP1;ratioP1;P1;durP2;ratioP2;P2;SDS_P1;SDS_P2;PMS_P1;PMS_P2;Temp;Humidity;BMP_temperature;BMP_pressure;BME280_temperature;BME280_humidity;BME280_pressure;Samples;Min_cycle;Max_cycle;Signal;HPM_P1;HPM_P2
2021/10/12 00:01:58;;;;;;;39.25;20.62;;;;;;;2.60;84.33;99483.75;1756030;81;20970;-69
2021/10/12 00:04:24;;;;;;;44.27;20.80;;;;;;;2.59;84.47;99486.72;1755981;81;20986;-69
2021/10/12 00:06:51;;;;;;;44.18;21.48;;;;;;;2.52;84.78;99478.83;1756308;81;20923;-69
2021/10/12 00:09:19;;;;;;;50.35;21.93;;;;;;;2.52;84.78;99478.83;1756179;81;21050;-68
2021/10/12 00:11:47;;;;;;;46.45;23.20;;;;;;;2.51;84.75;99477.74;1727260;81;21569;-68
2021/10/12 00:14:13;;;;;;;49.15;22.62;;;;;;;2.48;84.85;99471.50;1756064;81;21062;-68
2021/10/12 00:16:40;;;;;;;44.83;21.93;;;;;;;2.45;84.93;99470.13;1756157;81;20904;-68
2021/10/12 00:19:07;;;;;;;43.05;22.37;;;;;;;2.44;85.02;99467.14;1755988;81;20986;-68
2021/10/12 00:21:34;;;;;;;48.02;22.10;;;;;;;2.43;85.08;99462.80;1756160;81;20880;-69
2021/10/12 00:24:00;;;;;;;46.08;22.30;;;;;;;2.43;85.17;99462.80;1726400;81;21447;-68
2021/10/12 00:26:27;;;;;;;45.88;22.02;;;;;;;2.42;85.20;99462.53;1755626;81;21011;-67
2021/10/12 00:28:53;;;;;;;49.27;22.60;;;;;;;2.40;85.33;99457.09;1755914;81;21074;-67
2021/10/12 00:31:20;;;;;;;45.17;23.55;;;;;;;2.40;85.49;99459.80;1755691;81;21984;-67
2021/10/12 00:33:47;;;;;;;52.55;23.90;;;;;;;2.38;85.64;99458.72;1755545;81;21086;-66
2021/10/12 00:36:14;;;;;;;43.75;22.50;;;;;;;2.38;85.79;99461.42;1755861;81;21111;-66
2021/10/12 00:38:41;;;;;;;45.90;23.32;;;;;;;2.38;85.89;99460.07;1755566;81;21704;-66
2021/10/12 00:41:08;;;;;;;56.60;24.57;;;;;;;2.39;85.92;99455.47;1747977;81;21517;-69
2021/10/12 00:43:35;;;;;;;54.73;24.95;;;;;;;2.40;86.00;99458.45;1747784;82;21664;-67
2021/10/12 00:46:02;;;;;;;56.77;26.57;;;;;;;2.41;86.16;99458.19;1747825;82;21581;-68
2021/10/12 00:48:29;;;;;;;56.02;25.27;;;;;;;2.41;86.12;99454.13;1747557;82;21164;-68
2021/10/12 00:50:55;;;;;;;50.70;23.50;;;;;;;2.42;86.20;99453.05;1747789;82;21054;-68
2021/10/12 00:53:22;;;;;;;49.03;24.10;;;;;;;2.44;86.49;99454.14;1747652;82;21035;-69
2021/10/12 00:55:48;;;;;;;59.75;24.80;;;;;;;2.48;86.71;99452.53;1747566;82;21050;-68
2021/10/12 00:58:15;;;;;;;54.45;23.55;;;;;;;2.50;86.78;99450.37;1747672;82;21695;-68
2021/10/12 01:00:43;;;;;;;52.70;24.37;;;;;;;2.51;86.82;99448.75;1747682;82;21396;-67
2021/10/12 01:03:10;;;;;;;49.80;24.40;;;;;;;2.52;86.81;99441.44;1747745;82;20947;-67
2021/10/12 01:05:38;;;;;;;47.43;24.12;;;;;;;2.53;86.83;99439.81;1747702;82;20974;-68
2021/10/12 01:08:05;;;;;;;50.73;22.95;;;;;;;2.54;87.02;99435.21;1726470;82;21584;-69
2021/10/12 01:10:32;;;;;;;52.70;22.22;;;;;;;2.55;87.04;99432.77;1718547;82;21538;-68
2021/10/12 01:12:58;;;;;;;54.98;23.30;;;;;;;2.55;87.06;99428.17;1734568;82;21156;-68
2021/10/12 01:15:26;;;;;;;44.38;21.97;;;;;;;2.56;87.08;99427.63;1734306;82;21034;-67
2021/10/12 01:17:52;;;;;;;49.75;22.85;;;;;;;2.55;87.05;99426.81;1734696;82;20984;-66
2021/10/12 01:20:19;;;;;;;52.17;21.75;;;;;;;2.54;87.36;99421.13;1734237;82;21019;-68
2021/10/12 01:22:48;;;;;;;44.70;21.17;;;;;;;2.54;87.36;99421.13;1734448;82;20948;-68
2021/10/12 01:25:15;;;;;;;53.70;22.45;;;;;;;2.56;87.27;99423.03;1734573;82;21152;-67
2021/10/12 01:27:44;;;;;;;45.33;21.85;;;;;;;2.56;87.23;99424.92;1734355;82;20928;-68
2021/10/12 01:30:11;;;;;;;49.33;22.22;;;;;;;2.54;87.33;99414.34;1734587;82;21507;-67
2021/10/12 01:32:42;;;;;;;45.15;20.55;;;;;;;2.54;87.46;99414.89;1734660;82;21508;-68
2021/10/12 01:35:11;;;;;;;44.85;20.45;;;;;;;2.55;87.54;99415.98;1734700;82;21011;-68
2021/10/12 01:37:39;;;;;;;40.23;21.10;;;;;;;2.54;87.58;99412.99;1734327;82;21173;-67
2021/10/12 01:40:08;;;;;;;49.10;21.42;;;;;;;2.53;87.53;99411.91;1740495;82;20966;-67
2021/10/12 01:42:36;;;;;;;46.68;21.35;;;;;;;2.50;87.68;99409.19;1750956;82;21513;-68
2021/10/12 01:45:06;;;;;;;48.25;21.42;;;;;;;2.50;87.69;99409.72;1751120;82;21062;-67
2021/10/12 01:47:32;;;;;;;44.00;21.00;;;;;;;2.50;87.75;99407.02;1750845;81;21126;-67
2021/10/12 01:49:59;;;;;;;45.58;22.20;;;;;;;2.48;87.70;99407.82;1751262;82;21741;-68
2021/10/12 01:52:26;;;;;;;50.12;23.25;;;;;;;2.46;87.70;99408.63;1750712;82;20983;-70
2021/10/12 01:54:52;;;;;;;49.48;21.57;;;;;;;2.43;87.56;99413.22;1747485;81;21069;-70
2021/10/12 01:57:19;;;;;;;50.43;24.12;;;;;;;2.40;87.73;99407.79;1729818;81;21035;-70
2021/10/12 01:59:46;;;;;;;49.67;21.50;;;;;;;2.41;87.96;99408.06;1726375;83;21114;-69
2021/10/12 02:02:13;;;;;;;46.75;22.37;;;;;;;2.44;88.13;99401.30;1738937;81;21704;-69
2021/10/12 02:04:39;;;;;;;54.98;23.32;;;;;;;2.41;87.97;99397.77;1743300;81;21525;-69
2021/10/12 02:07:06;;;;;;;45.05;21.90;;;;;;;2.41;87.97;99397.77;1726599;83;20958;-69
2021/10/12 02:09:32;;;;;;;46.83;23.32;;;;;;;2.41;87.84;99395.88;1732793;81;21601;-69
2021/10/12 02:11:59;;;;;;;46.50;22.17;;;;;;;2.39;87.93;99391.27;1736163;82;21086;-70
2021/10/12 02:14:25;;;;;;;44.50;22.65;;;;;;;2.37;87.95;99393.42;1735174;82;21102;-69
2021/10/12 02:16:51;;;;;;;45.35;23.12;;;;;;;2.36;88.00;99387.73;1734704;82;20900;-68
2021/10/12 02:19:18;;;;;;;44.85;22.77;;;;;;;2.36;88.08;99390.98;1734580;82;21051;-67
2021/10/12 02:21:44;;;;;;;44.33;23.15;;;;;;;2.35;88.12;99382.03;1734857;82;21554;-67
2021/10/12 02:24:12;;;;;;;47.45;24.63;;;;;;;2.34;88.24;99380.41;1734587;82;21011;-67
2021/10/12 02:26:38;;;;;;;49.35;24.50;;;;;;;2.33;88.35;99384.20;1734922;82;21781;-67
2021/10/12 02:29:05;;;;;;;51.37;24.12;;;;;;;2.32;88.43;99371.73;1734946;82;21502;-67
2021/10/12 02:31:32;;;;;;;49.48;23.75;;;;;;;2.32;88.48;99369.84;1734803;82;21538;-69
2021/10/12 02:33:58;;;;;;;40.85;21.75;;;;;;;2.33;88.59;99370.66;1734773;82;21153;-68
2021/10/12 02:36:25;;;;;;;50.05;24.20;;;;;;;2.35;88.70;99367.67;1734974;82;21499;-68
2021/10/12 02:38:51;;;;;;;55.95;26.42;;;;;;;2.33;88.66;99366.05;1734861;82;21139;-69
2021/10/12 02:41:17;;;;;;;52.05;25.88;;;;;;;2.33;88.79;99362.52;1743813;82;20948;-69
2021/10/12 02:43:44;;;;;;;52.40;24.87;;;;;;;2.35;88.92;99361.72;1747451;82;20979;-68
2021/10/12 02:46:10;;;;;;;59.27;26.27;;;;;;;2.37;88.96;99358.74;1717484;82;21063;-68
2021/10/12 02:48:37;;;;;;;70.83;26.30;;;;;;;2.37;89.00;99355.49;1747256;82;20928;-69
2021/10/12 02:51:03;;;;;;;52.58;24.52;;;;;;;2.39;88.92;99356.05;1747087;82;21846;-69
2021/10/12 02:53:30;;;;;;;56.85;25.17;;;;;;;2.39;88.93;99351.98;1747083;82;21585;-70
2021/10/12 02:55:57;;;;;;;54.27;28.47;;;;;;;2.40;89.04;99352.80;1747021;82;20987;-70
2021/10/12 02:58:23;;;;;;;67.17;28.95;;;;;;;2.42;89.19;99351.98;1747019;82;21063;-69
2021/10/12 03:00:49;;;;;;;69.70;32.08;;;;;;;2.44;89.25;99353.89;1746909;82;20988;-69
2021/10/12 03:03:16;;;;;;;76.80;33.85;;;;;;;2.44;89.25;99349.28;1747380;82;21020;-68
2021/10/12 03:05:44;;;;;;;80.05;36.95;;;;;;;2.44;89.28;99347.93;1746890;82;20970;-68
2021/10/12 03:08:11;;;;;;;88.00;36.98;;;;;;;2.44;89.30;99346.58;1746842;82;20955;-68
2021/10/12 03:10:38;;;;;;;92.12;40.00;;;;;;;2.45;89.27;99344.68;1750288;82;21019;-68
2021/10/12 03:13:04;;;;;;;91.45;38.98;;;;;;;2.43;89.28;99335.47;1751925;82;21494;-68
2021/10/12 03:15:31;;;;;;;89.90;37.33;;;;;;;2.45;89.23;99344.68;1751745;82;21517;-69
2021/10/12 03:17:59;;;;;;;83.55;36.77;;;;;;;2.44;89.16;99343.87;1751937;82;21035;-68
2021/10/12 03:20:26;;;;;;;81.78;37.25;;;;;;;2.44;89.18;99336.28;1752578;82;20935;-68
2021/10/12 03:22:52;;;;;;;94.50;39.75;;;;;;;2.43;89.25;99332.75;1752290;82;20903;-68
2021/10/12 03:25:19;;;;;;;85.05;37.75;;;;;;;2.41;89.28;99332.20;1752242;82;21055;-69
2021/10/12 03:27:45;;;;;;;82.37;35.50;;;;;;;2.41;89.29;99331.39;1752477;81;21087;-70
2021/10/12 03:30:12;;;;;;;87.88;37.90;;;;;;;2.41;89.36;99332.75;1752255;81;20935;-67
2021/10/12 03:32:39;;;;;;;84.87;37.40;;;;;;;2.41;89.42;99330.04;1752743;81;20975;-67
2021/10/12 03:35:07;;;;;;;89.97;38.38;;;;;;;2.41;89.45;99321.38;1752403;82;20978;-67
2021/10/12 03:37:34;;;;;;;90.70;38.13;;;;;;;2.43;89.60;99323.81;1752407;82;20861;-68
2021/10/12 03:40:01;;;;;;;92.37;40.03;;;;;;;2.44;89.78;99321.38;1752209;81;21065;-66
2021/10/12 03:42:27;;;;;;;103.27;43.10;;;;;;;2.42;89.72;99314.87;1752183;82;21510;-68
2021/10/12 03:44:54;;;;;;;110.45;46.48;;;;;;;2.42;89.82;99316.23;1752299;82;21003;-68
2021/10/12 03:47:20;;;;;;;113.70;45.33;;;;;;;2.42;89.83;99312.16;1752477;82;20896;-70
2021/10/12 03:49:47;;;;;;;110.90;44.18;;;;;;;2.42;89.86;99314.06;1752715;82;21034;-68
2021/10/12 03:52:13;;;;;;;104.30;46.58;;;;;;;2.43;89.94;99318.39;1752491;82;21194;-68
2021/10/12 03:54:39;;;;;;;108.03;46.55;;;;;;;2.42;89.98;99308.64;1752575;82;21542;-67
2021/10/12 03:57:06;;;;;;;110.17;46.98;;;;;;;2.42;90.04;99309.45;1741348;80;20979;-67
2021/10/12 03:59:33;;;;;;;114.97;48.90;;;;;;;2.39;89.95;99305.92;1747498;81;20888;-68
2021/10/12 04:02:00;;;;;;;112.00;47.90;;;;;;;2.40;89.86;99309.45;1725891;81;21478;-67
2021/10/12 04:04:27;;;;;;;99.00;46.28;;;;;;;2.38;89.89;99305.66;1719303;83;21641;-66
2021/10/12 04:06:55;;;;;;;96.40;45.17;;;;;;;2.37;89.83;99300.50;1753291;81;21276;-67
2021/10/12 04:09:21;;;;;;;91.00;43.92;;;;;;;2.33;89.64;99300.22;1747340;81;21464;-69
2021/10/12 04:11:49;;;;;;;87.90;40.73;;;;;;;2.29;89.53;99301.33;1750060;81;21487;-68
2021/10/12 04:14:15;;;;;;;87.27;38.25;;;;;;;2.24;89.45;99299.95;1749226;82;21026;-69
2021/10/12 04:16:42;;;;;;;76.53;37.28;;;;;;;2.20;89.39;99302.92;1749427;82;21147;-70
2021/10/12 04:19:09;;;;;;;77.67;36.33;;;;;;;2.17;89.69;99299.40;1752739;81;20888;-70
2021/10/12 04:21:35;;;;;;;68.60;35.10;;;;;;;2.16;89.94;99301.02;1752298;82;20927;-70
2021/10/12 04:24:02;;;;;;;70.45;34.88;;;;;;;2.14;90.07;99296.41;1752915;81;20956;-70
2021/10/12 04:26:29;;;;;;;73.55;34.35;;;;;;;2.12;90.06;99298.56;1752802;82;21553;-69
2021/10/12 04:28:56;;;;;;;69.90;35.60;;;;;;;2.12;90.17;99295.86;1752138;82;22005;-69
2021/10/12 04:31:22;;;;;;;66.77;34.40;;;;;;;2.11;90.16;99296.40;1752923;81;20892;-71
2021/10/12 04:33:49;;;;;;;72.45;32.55;;;;;;;2.12;90.25;99289.91;1753374;81;21501;-67
2021/10/12 04:36:15;;;;;;;70.87;33.50;;;;;;;2.13;90.34;99290.72;1753208;81;21050;-67
2021/10/12 04:38:42;;;;;;;62.70;32.88;;;;;;;2.15;90.59;99291.27;1753271;81;20931;-66
2021/10/12 04:41:09;;;;;;;73.90;35.65;;;;;;;2.19;90.84;99285.59;1753198;81;21102;-68
2021/10/12 04:43:36;;;;;;;74.07;33.60;;;;;;;2.24;91.58;99284.25;1753242;81;20990;-67
2021/10/12 04:46:03;;;;;;;72.72;33.30;;;;;;;2.29;91.67;99276.14;1753292;81;20896;-67
2021/10/12 04:48:29;;;;;;;73.30;34.35;;;;;;;2.34;91.90;99270.70;1753435;81;20983;-67
2021/10/12 04:50:56;;;;;;;67.70;33.30;;;;;;;2.38;91.90;99276.39;1753509;81;21540;-67
2021/10/12 04:53:23;;;;;;;74.30;36.88;;;;;;;2.41;91.80;99271.25;1719789;83;21472;-67
2021/10/12 04:55:57;;;;;;;72.60;34.25;;;;;;;2.44;91.83;99268.00;1719792;82;20924;-67
2021/10/12 04:58:29;;;;;;;83.58;37.30;;;;;;;2.51;92.07;99267.20;1711689;83;21023;-67
2021/10/12 05:01:00;;;;;;;79.80;37.90;;;;;;;2.64;92.34;99263.14;1722997;83;20967;-67
2021/10/12 05:03:34;;;;;;;72.72;36.73;;;;;;;2.64;92.34;99263.14;1700878;83;20959;-67
2021/10/12 05:06:00;;;;;;;89.45;37.63;;;;;;;2.72;92.37;99264.50;1723380;83;21826;-67
2021/10/12 05:08:35;;;;;;;73.22;37.90;;;;;;;2.78;92.37;99257.45;1723043;81;21015;-67
2021/10/12 05:11:11;;;;;;;72.90;35.60;;;;;;;2.86;92.45;99259.63;1723220;83;20955;-67
2021/10/12 05:13:43;;;;;;;88.27;36.75;;;;;;;2.96;92.76;99260.94;1725952;80;21404;-74
2021/10/12 05:16:13;;;;;;;84.25;38.20;;;;;;;3.09;92.94;99253.34;1739006;81;20919;-79
2021/10/12 05:18:47;;;;;;;87.72;35.98;;;;;;;3.21;92.93;99256.57;1753749;81;21151;-76
2021/10/12 05:21:21;;;;;;;80.17;34.35;;;;;;;3.31;92.82;99254.66;1753235;81;20891;-72
2021/10/12 05:23:46;;;;;;;81.08;36.70;;;;;;;3.45;92.66;99249.46;1719954;82;20975;-76
2021/10/12 05:26:22;;;;;;;75.90;33.78;;;;;;;3.58;92.22;99252.92;1753262;81;20939;-73
2021/10/12 05:28:55;;;;;;;74.62;34.85;;;;;;;3.71;91.51;99253.42;1707009;83;21633;-72
2021/10/12 05:31:26;;;;;;;69.37;32.20;;;;;;;3.83;90.88;99250.65;1721245;83;20932;-75
2021/10/12 05:34:02;;;;;;;66.53;33.73;;;;;;;3.95;90.39;99248.42;1719808;83;20999;-73
2021/10/12 05:36:29;;;;;;;66.47;32.08;;;;;;;4.09;89.46;99261.36;1719137;82;20897;-70
2021/10/12 05:38:56;;;;;;;72.27;32.70;;;;;;;4.20;88.44;99256.14;1719694;83;20991;-74
2021/10/12 05:41:22;;;;;;;60.52;30.95;;;;;;;4.38;87.39;99251.41;1720883;82;21026;-80
2021/10/12 05:43:49;;;;;;;66.87;32.35;;;;;;;4.38;87.39;99251.41;1722899;83;21514;-74
2021/10/12 05:46:15;;;;;;;66.90;32.78;;;;;;;4.50;86.64;99253.77;1722795;83;20883;-76
2021/10/12 05:48:42;;;;;;;70.55;31.48;;;;;;;4.60;86.10;99249.62;1724043;83;20911;-76
2021/10/12 05:51:11;;;;;;;68.17;33.35;;;;;;;4.71;85.80;99250.33;1733023;83;20932;-78
2021/10/12 05:53:45;;;;;;;76.25;39.98;;;;;;;4.80;85.14;99244.54;1731591;83;21463;-73
2021/10/12 05:56:11;;;;;;;61.83;34.55;;;;;;;4.84;84.44;99245.05;1730289;81;21407;-79
2021/10/12 05:58:42;;;;;;;71.07;39.30;;;;;;;4.92;83.98;99253.14;1730266;82;21010;-75
2021/10/12 06:01:04;;;;;;;70.62;32.98;;;;;;;4.99;83.84;99248.19;1729688;82;20982;-76
2021/10/12 06:03:31;;;;;;;79.03;46.53;;;;;;;5.09;83.32;99252.72;1730553;83;20948;-75
2021/10/12 06:06:00;;;;;;;77.17;40.35;;;;;;;5.17;83.00;99250.19;1730883;83;21569;-83
2021/10/12 06:08:29;;;;;;;85.35;48.15;;;;;;;5.27;82.50;99249.25;1730510;81;22021;-78
2021/10/12 06:10:55;;;;;;;97.00;53.70;;;;;;;5.33;81.79;99248.09;1730921;82;20907;-76
2021/10/12 06:13:23;;;;;;;95.17;53.45;;;;;;;5.41;81.97;99248.83;1731671;81;21007;-78
2021/10/12 06:15:50;;;;;;;85.03;47.45;;;;;;;5.47;81.09;99246.86;1732047;83;20928;-75
2021/10/12 06:18:19;;;;;;;89.62;48.15;;;;;;;5.53;81.32;99245.70;1730979;81;21014;-75
2021/10/12 06:20:48;;;;;;;71.07;40.35;;;;;;;5.57;80.47;99242.11;1730591;83;21250;-75
2021/10/12 06:23:15;;;;;;;70.90;39.23;;;;;;;5.66;80.20;99239.56;1730545;83;20923;-74
2021/10/12 06:25:42;;;;;;;61.50;31.17;;;;;;;5.81;80.40;99239.89;1710284;83;20935;-75
2021/10/12 06:28:11;;;;;;;55.73;31.23;;;;;;;5.93;79.29;99247.94;1730785;83;21466;-75
2021/10/12 06:30:40;;;;;;;60.58;30.80;;;;;;;6.06;79.03;99243.69;1730794;83;20987;-74
2021/10/12 06:33:07;;;;;;;58.68;30.80;;;;;;;6.17;78.47;99247.09;1731204;83;21336;-74
2021/10/12 06:35:33;;;;;;;60.90;33.60;;;;;;;6.29;78.16;99243.38;1731031;83;20920;-75
2021/10/12 06:38:01;;;;;;;115.80;64.92;;;;;;;6.46;77.62;99251.00;1731018;83;21505;-73
2021/10/12 06:40:29;;;;;;;97.05;48.95;;;;;;;6.61;76.56;99240.67;1731060;83;20888;-75
2021/10/12 06:42:56;;;;;;;87.25;44.80;;;;;;;6.70;76.41;99231.81;1752510;81;21000;-71
2021/10/12 06:45:23;;;;;;;87.55;44.80;;;;;;;6.80;76.24;99237.92;1719851;83;21162;-70
2021/10/12 06:47:51;;;;;;;54.60;28.45;;;;;;;6.89;76.13;99229.86;1719829;83;21499;-70
2021/10/12 06:50:19;;;;;;;60.63;29.67;;;;;;;6.94;75.09;99237.94;1753345;81;20908;-70
2021/10/12 06:52:46;;;;;;;67.00;34.80;;;;;;;7.00;75.92;99233.20;1719561;83;21517;-70
2021/10/12 06:55:18;;;;;;;107.52;66.47;;;;;;;7.11;75.63;99238.18;1719731;83;20885;-70
2021/10/12 06:57:42;;;;;;;101.92;59.23;;;;;;;7.26;75.74;99239.83;1719502;82;21082;-69
2021/10/12 07:00:14;;;;;;;125.82;72.62;;;;;;;7.43;75.06;99233.78;1753307;81;20983;-70
2021/10/12 07:02:42;;;;;;;110.63;66.75;;;;;;;7.52;74.88;99236.84;1720425;83;24531;-84
2021/10/12 07:05:10;;;;;;;79.87;51.60;;;;;;;7.61;74.65;99237.76;1720501;83;20939;-77
2021/10/12 07:07:37;;;;;;;96.97;55.92;;;;;;;7.68;73.95;99240.09;1754521;81;20986;-78
2021/10/12 07:10:07;;;;;;;88.30;51.73;;;;;;;7.69;74.00;99242.27;1753863;80;21518;-72
2021/10/12 07:12:35;;;;;;;81.85;44.05;;;;;;;7.73;73.97;99240.54;1753584;81;21478;-75
2021/10/12 07:15:03;;;;;;;123.20;72.08;;;;;;;7.75;73.52;99236.39;1720221;83;20923;-69
2021/10/12 07:17:32;;;;;;;152.85;87.53;;;;;;;7.80;73.66;99239.02;1707540;83;21439;-72
2021/10/12 07:19:59;;;;;;;162.55;90.67;;;;;;;7.94;73.19;99229.45;1721942;82;21525;-72
2021/10/12 07:22:25;;;;;;;158.35;87.50;;;;;;;8.15;73.11;99229.78;1721994;83;21913;-71
2021/10/12 07:24:52;;;;;;;131.12;74.50;;;;;;;8.38;73.25;99235.59;1689484;85;20935;-71
2021/10/12 07:27:18;;;;;;;99.58;55.40;;;;;;;8.64;71.44;99228.16;1721984;82;20987;-78
2021/10/12 07:29:46;;;;;;;94.92;52.30;;;;;;;8.90;71.39;99229.13;1689876;84;20984;-71
2021/10/12 07:32:16;;;;;;;83.05;43.30;;;;;;;9.27;69.96;99223.19;1697187;82;20987;-76
2021/10/12 07:34:43;;;;;;;72.22;36.90;;;;;;;9.75;68.70;99230.65;1709168;83;21152;-83
2021/10/12 07:37:09;;;;;;;52.30;29.72;;;;;;;10.18;66.88;99217.01;1722244;83;20925;-76
2021/10/12 07:39:36;;;;;;;54.73;29.52;;;;;;;10.47;66.37;99215.58;1722756;83;21574;-81
2021/10/12 07:42:05;;;;;;;49.13;26.10;;;;;;;10.57;64.92;99211.95;1722173;83;21040;-77
2021/10/12 07:44:32;;;;;;;54.13;27.10;;;;;;;10.55;63.96;99215.58;1727963;80;20951;-77
2021/10/12 07:46:59;;;;;;;76.55;42.43;;;;;;;10.54;64.81;99218.65;1734572;81;21600;-76
2021/10/12 07:49:25;;;;;;;67.32;38.50;;;;;;;10.64;65.50;99214.20;1722525;83;20994;-78
2021/10/12 07:51:52;;;;;;;49.30;29.65;;;;;;;10.90;64.66;99208.13;1735386;82;21082;-77
2021/10/12 07:54:25;;;;;;;44.90;25.52;;;;;;;11.17;64.44;99200.03;1745488;82;20936;-75
2021/10/12 07:56:47;;;;;;;51.83;26.02;;;;;;;11.42;63.26;99198.91;1745291;81;21539;-78
2021/10/12 07:59:14;;;;;;;61.10;25.62;;;;;;;11.61;62.50;99192.97;1745824;81;21514;-75
2021/10/12 08:01:40;;;;;;;51.05;25.82;;;;;;;11.70;61.84;99194.55;1745715;82;21043;-75
2021/10/12 08:04:07;;;;;;;61.45;33.33;;;;;;;11.77;61.56;99192.11;1742273;81;21513;-75
2021/10/12 08:06:34;;;;;;;52.17;28.35;;;;;;;11.89;60.90;99185.33;1688995;85;21547;-74
2021/10/12 08:09:01;;;;;;;47.08;26.62;;;;;;;12.03;60.29;99181.53;1721155;82;21031;-75
2021/10/12 08:11:28;;;;;;;51.55;26.25;;;;;;;12.22;60.00;99187.35;1688978;85;21508;-73
2021/10/12 08:14:00;;;;;;;51.77;26.00;;;;;;;12.38;59.60;99182.86;1688888;84;21003;-76
2021/10/12 08:16:30;;;;;;;51.53;25.20;;;;;;;12.56;59.99;99178.81;1721790;83;21086;-75
2021/10/12 08:18:54;;;;;;;46.53;26.75;;;;;;;12.73;58.76;99180.58;1689269;84;21031;-73
2021/10/12 08:21:21;;;;;;;62.20;31.23;;;;;;;12.82;58.66;99176.37;1721994;83;20963;-74
2021/10/12 08:23:48;;;;;;;61.18;30.27;;;;;;;12.92;58.38;99175.94;1689028;85;21010;-72
2021/10/12 08:26:15;;;;;;;47.70;26.20;;;;;;;13.00;57.61;99168.73;1721574;83;20895;-72
2021/10/12 08:28:41;;;;;;;49.50;25.12;;;;;;;13.00;58.07;99173.67;1708409;83;21435;-72
2021/10/12 08:31:08;;;;;;;54.45;26.12;;;;;;;13.08;57.73;99170.02;1709180;83;20967;-72
2021/10/12 08:33:35;;;;;;;44.63;28.10;;;;;;;13.11;57.60;99162.44;1744565;81;20935;-71
2021/10/12 08:36:03;;;;;;;48.70;28.42;;;;;;;13.14;57.08;99164.52;1719778;83;21519;-71
2021/10/12 08:38:29;;;;;;;49.30;27.87;;;;;;;13.13;57.08;99157.97;1753590;81;21015;-72
2021/10/12 08:40:56;;;;;;;45.12;22.70;;;;;;;13.25;57.72;99158.59;1753248;81;21545;-72
2021/10/12 08:43:23;;;;;;;39.67;21.70;;;;;;;13.50;56.94;99149.16;1719831;82;20908;-72
2021/10/12 08:45:50;;;;;;;49.48;23.55;;;;;;;13.62;56.05;99152.50;1719819;83;20932;-72
2021/10/12 08:48:17;;;;;;;42.85;21.30;;;;;;;13.65;55.91;99155.95;1753490;81;21523;-72
2021/10/12 08:50:44;;;;;;;48.00;24.85;;;;;;;13.68;55.27;99148.36;1720116;82;20881;-70
2021/10/12 08:53:10;;;;;;;53.40;31.12;;;;;;;13.65;55.87;99142.16;1720061;82;20877;-71
2021/10/12 08:55:37;;;;;;;50.88;27.15;;;;;;;13.71;56.08;99146.29;1719484;82;21593;-71
2021/10/12 08:58:04;;;;;;;56.28;25.27;;;;;;;13.76;55.51;99146.06;1753288;81;21431;-70
2021/10/12 09:00:31;;;;;;;42.62;22.85;;;;;;;13.79;55.76;99142.03;1703844;83;21132;-70
2021/10/12 09:06:02;;;;;;;;;;;;;;;13.85;55.00;99132.95;1722363;82;21423;-70
2021/10/12 09:08:41;;;;;;;49.45;22.27;;;;;;;13.83;55.70;99128.35;1719768;82;20438;-70
2021/10/12 09:11:23;;;;;;;46.15;21.82;;;;;;;13.98;54.94;99130.94;1719828;83;20999;-71
2021/10/12 09:14:04;;;;;;;41.18;21.00;;;;;;;14.02;54.80;99128.52;1718635;82;22023;-71
2021/10/12 09:16:37;;;;;;;54.60;24.40;;;;;;;14.11;54.49;99127.00;1753366;81;21435;-71
2021/10/12 09:19:09;;;;;;;48.95;23.47;;;;;;;14.12;54.77;99124.47;1738471;81;32467;-71
2021/10/12 09:21:38;;;;;;;43.83;22.07;;;;;;;14.25;54.44;99124.66;1753290;81;21801;-72
2021/10/12 09:24:20;;;;;;;30.88;16.82;;;;;;;14.42;54.21;99123.60;1753313;81;21403;-72
2021/10/12 09:27:03;;;;;;;32.30;16.20;;;;;;;14.46;52.87;99114.81;1753357;81;21088;-72
2021/10/12 09:29:46;;;;;;;51.50;19.95;;;;;;;14.29;52.53;99106.24;1719753;83;20896;-72
2021/10/12 09:32:06;;;;;;;33.00;17.32;;;;;;;14.00;53.62;99111.50;1718061;82;21429;-72
2021/10/12 09:34:33;;;;;;;31.85;18.32;;;;;;;13.78;53.51;99105.94;1745964;81;20868;-72
2021/10/12 09:37:00;;;;;;;37.48;17.92;;;;;;;13.61;53.96;99106.19;1743399;81;21513;-71
2021/10/12 09:39:42;;;;;;;75.87;39.75;;;;;;;13.49;54.24;99096.55;1753270;81;21973;-71
2021/10/12 09:42:14;;;;;;;41.05;19.62;;;;;;;13.45;54.94;99095.05;1753155;81;21137;-71
2021/10/12 09:44:56;;;;;;;31.60;16.37;;;;;;;13.54;55.15;99097.12;1719852;83;20860;-71
2021/10/12 09:47:25;;;;;;;30.00;16.32;;;;;;;13.66;54.03;99093.55;1753331;81;20892;-70
2021/10/12 09:50:11;;;;;;;37.70;18.48;;;;;;;13.74;53.81;99087.09;1719848;82;20916;-70
2021/10/12 09:52:41;;;;;;;31.40;16.45;;;;;;;13.76;54.02;99084.80;1753696;81;21749;-71
2021/10/12 09:55:08;;;;;;;38.42;17.07;;;;;;;13.85;54.36;99085.47;1719794;83;20975;-70
2021/10/12 09:57:36;;;;;;;34.30;17.87;;;;;;;13.92;54.27;99081.28;1753572;81;21372;-71
2021/10/12 10:00:05;;;;;;;35.43;17.67;;;;;;;13.97;54.11;99073.56;1753361;81;21419;-72
2021/10/12 10:02:34;;;;;;;44.33;19.23;;;;;;;14.05;54.55;99075.95;1752540;81;20903;-71
2021/10/12 10:05:00;;;;;;;36.98;18.82;;;;;;;14.14;53.79;99070.52;1753344;81;21523;-71
2021/10/12 10:07:31;;;;;;;31.42;15.32;;;;;;;14.08;53.10;99071.92;1753304;81;20983;-71
2021/10/12 10:10:07;;;;;;;32.42;13.88;;;;;;;13.95;53.35;99065.41;1753223;80;20923;-71
2021/10/12 10:12:35;;;;;;;24.10;12.90;;;;;;;13.89;53.79;99069.80;1753311;81;20860;-71
2021/10/12 10:15:03;;;;;;;22.62;13.72;;;;;;;13.88;52.79;99062.66;1719767;83;20920;-71
2021/10/12 10:17:30;;;;;;;27.42;13.80;;;;;;;13.85;52.72;99059.25;1720035;83;21114;-71
2021/10/12 10:19:57;;;;;;;35.95;14.98;;;;;;;13.85;53.10;99057.88;1719674;83;20996;-71
2021/10/12 10:22:40;;;;;;;29.23;14.38;;;;;;;13.88;53.01;99050.25;1719944;83;20877;-72
2021/10/12 10:25:34;;;;;;;35.83;15.08;;;;;;;13.88;52.87;99051.62;1719803;83;21009;-71
2021/10/12 10:28:22;;;;;;;40.12;15.15;;;;;;;13.91;53.53;99050.70;1709129;83;20896;-69
2021/10/12 10:30:59;;;;;;;27.98;14.85;;;;;;;13.93;53.82;99049.20;1719824;83;21491;-71
2021/10/12 10:33:35;;;;;;;28.73;15.10;;;;;;;13.89;52.97;99047.72;1753547;81;21000;-70
2021/10/12 10:36:05;;;;;;;30.70;15.35;;;;;;;13.90;52.78;99045.77;1719801;83;20932;-71
2021/10/12 10:38:42;;;;;;;66.67;28.23;;;;;;;13.87;53.04;99038.98;1753567;81;20951;-71
2021/10/12 10:41:14;;;;;;;64.30;26.70;;;;;;;13.87;52.51;99037.61;1752744;81;20867;-72
2021/10/12 10:43:56;;;;;;;33.58;14.45;;;;;;;13.78;52.36;99030.08;1722012;83;21140;-72
2021/10/12 10:46:36;;;;;;;26.57;13.50;;;;;;;13.72;52.82;99030.09;1723122;83;20888;-72
2021/10/12 10:49:23;;;;;;;33.10;17.65;;;;;;;13.65;52.47;99026.31;1723014;83;20880;-72
2021/10/12 10:52:07;;;;;;;30.35;16.85;;;;;;;13.54;52.40;99021.28;1726594;83;21081;-73
2021/10/12 10:54:48;;;;;;;31.55;14.07;;;;;;;13.43;52.99;99023.48;1720541;83;20891;-73
2021/10/12 10:57:22;;;;;;;28.87;14.25;;;;;;;13.36;53.27;99023.27;1730783;82;21977;-72
2021/10/12 11:00:19;;;;;;;31.57;13.72;;;;;;;13.36;53.75;99021.88;1730826;83;21455;-71
2021/10/12 11:02:47;;;;;;;29.57;13.55;;;;;;;13.38;54.01;99020.39;1730765;83;20935;-72
2021/10/12 11:05:35;;;;;;;28.95;15.00;;;;;;;13.40;54.21;99016.70;1730982;83;20904;-73
2021/10/12 11:08:14;;;;;;;27.40;13.68;;;;;;;13.45;54.48;99014.29;1698123;84;20894;-73
2021/10/12 11:10:42;;;;;;;26.48;13.60;;;;;;;13.47;53.83;99010.03;1680243;85;21126;-72
2021/10/12 11:13:09;;;;;;;25.37;13.60;;;;;;;13.47;53.62;99004.52;1680331;85;20952;-72
2021/10/12 11:15:51;;;;;;;27.87;16.70;;;;;;;13.46;53.55;99003.48;1680410;85;21593;-72
2021/10/12 11:18:18;;;;;;;27.90;14.70;;;;;;;13.46;54.22;99006.25;1668600;86;20986;-72
2021/10/12 11:20:48;;;;;;;49.42;28.42;;;;;;;13.44;52.87;98997.52;1730749;83;20927;-72
2021/10/12 11:23:23;;;;;;;46.45;25.08;;;;;;;13.35;52.78;99003.73;1730571;82;21781;-72
2021/10/12 11:26:05;;;;;;;38.73;19.57;;;;;;;13.28;53.38;99000.79;1730755;83;21447;-72
2021/10/12 11:28:35;;;;;;;32.35;15.25;;;;;;;13.27;53.83;98993.09;1730756;83;20927;-73
2021/10/12 11:31:05;;;;;;;26.57;12.98;;;;;;;13.26;53.88;98994.24;1730805;83;20888;-72
2021/10/12 11:33:37;;;;;;;37.67;19.07;;;;;;;13.25;54.19;98992.64;1730854;83;20856;-74